Time;durP1;ratioP1;P1;durP2;ratioP2;P2;SDS_P1;SDS_P2;PMS_P1;PMS_P2;Temp;Humidity;BMP_temperature;BMP_pressure;BME280_temperature;BME280_humidity;BME280_pressure;Samples;Min_cycle;Max_cycle;Signal;HPM_P1;HPM_P2
2021/03/13 00:01:01;;;;;;;;;;;5.50;99.90;;;;;;4967412;28;20327;-69
2021/03/13 00:03:29;;;;;;;;;;;5.60;99.90;;;;;;4954026;28;20531;-69
2021/03/13 00:05:54;;;;;;;;;;;5.60;99.90;;;;;;4957075;28;20427;-69
2021/03/13 00:08:22;;;;;;;;;;;5.60;99.90;;;;;;4967240;28;19910;-69
2021/03/13 00:10:48;;;;;;;;;;;5.70;99.90;;;;;;4969136;28;19920;-68
2021/03/13 00:13:16;;;;;;;;;;;5.70;99.90;;;;;;4969231;28;19918;-69
2021/03/13 00:15:42;;;;;;;;;;;5.70;99.90;;;;;;4969905;28;19920;-69
2021/03/13 00:18:07;;;;;;;;;;;5.70;99.90;;;;;;4969488;28;20310;-69
2021/03/13 00:20:33;;;;;;;;;;;5.70;99.90;;;;;;4968511;28;20268;-69
2021/03/13 00:22:59;;;;;;;;;;;5.80;99.90;;;;;;4954218;28;19964;-69
2021/03/13 00:25:28;;;;;;;;;;;5.80;99.90;;;;;;4954836;28;19910;-69
2021/03/13 00:27:56;;;;;;;;;;;5.80;99.90;;;;;;4952067;28;19918;-69
2021/03/13 00:30:22;;;;;;;;;;;5.80;99.90;;;;;;4953211;28;19910;-69
2021/03/13 00:32:51;;;;;;;;;;;5.90;99.90;;;;;;4970481;28;19920;-69
2021/03/13 00:35:16;;;;;;;;;;;5.90;99.90;;;;;;4968379;28;19915;-69
2021/03/13 00:37:44;;;;;;;;;;;5.90;99.90;;;;;;4955115;28;20335;-69
2021/03/13 00:40:14;;;;;;;;;;;5.90;99.90;;;;;;4967707;28;19914;-69
2021/03/13 00:42:42;;;;;;;;;;;5.90;99.90;;;;;;4969499;28;19918;-69
2021/03/13 00:45:08;;;;;;;;;;;5.90;99.90;;;;;;4943517;29;19929;-69
2021/03/13 00:47:38;;;;;;;;;;;6.00;99.90;;;;;;4950689;29;19925;-68
2021/03/13 00:50:04;;;;;;;;;;;6.00;99.90;;;;;;4950029;29;19938;-69
2021/03/13 00:52:30;;;;;;;;;;;5.90;99.90;;;;;;4934784;29;20013;-69
2021/03/13 00:54:55;;;;;;;;;;;6.00;99.90;;;;;;4949737;29;20486;-68
2021/03/13 00:57:21;;;;;;;;;;;5.90;99.90;;;;;;4949908;29;19942;-69
2021/03/13 00:59:46;;;;;;;;;;;6.00;99.90;;;;;;4949465;29;20005;-69
2021/03/13 01:02:14;;;;;;;;;;;6.00;99.90;;;;;;4949112;28;19961;-69
2021/03/13 01:04:42;;;;;;;;;;;6.00;99.90;;;;;;4950404;28;19929;-69
2021/03/13 01:07:10;;;;;;;;;;;5.90;99.90;;;;;;4949873;29;19910;-69
2021/03/13 01:09:38;;;;;;;;;;;5.90;99.90;;;;;;4949201;29;19996;-69
2021/03/13 01:12:04;;;;;;;;;;;6.00;99.90;;;;;;4948309;29;20259;-69
2021/03/13 01:14:29;;;;;;;;;;;5.90;99.90;;;;;;4948091;29;19915;-69
2021/03/13 01:16:55;;;;;;;;;;;6.00;99.90;;;;;;4947930;29;20263;-69
2021/03/13 01:19:23;;;;;;;;;;;6.00;99.90;;;;;;4947725;29;19930;-69
2021/03/13 01:21:50;;;;;;;;;;;6.00;99.90;;;;;;4947699;29;19922;-69
2021/03/13 01:24:16;;;;;;;;;;;6.00;99.90;;;;;;4948985;28;19915;-69
2021/03/13 01:26:44;;;;;;;;;;;6.00;99.90;;;;;;4934142;29;21705;-69
2021/03/13 01:29:12;;;;;;;;;;;5.90;99.90;;;;;;4948065;28;19915;-69
2021/03/13 01:31:39;;;;;;;;;;;6.00;99.90;;;;;;4947824;29;19910;-69
2021/03/13 01:34:05;;;;;;;;;;;6.00;99.90;;;;;;4947653;28;19918;-69
2021/03/13 01:36:33;;;;;;;;;;;6.00;99.90;;;;;;4949224;29;19918;-69
2021/03/13 01:38:58;;;;;;;;;;;6.00;99.90;;;;;;4946238;29;19933;-69
2021/03/13 01:41:24;;;;;;;;;;;6.10;99.90;;;;;;4948672;28;19918;-69
2021/03/13 01:43:51;;;;;;;;;;;6.10;99.90;;;;;;4949040;29;19918;-69
2021/03/13 01:46:17;;;;;;;;;;;6.10;99.90;;;;;;4947680;29;19918;-69
2021/03/13 01:48:44;;;;;;;;;;;6.20;99.90;;;;;;4945350;29;19911;-69
2021/03/13 01:51:09;;;;;;;;;;;6.20;99.90;;;;;;4931988;29;20008;-69
2021/03/13 01:53:35;;;;;;;;;;;6.20;99.90;;;;;;4947687;29;20009;-69
2021/03/13 01:56:02;;;;;;;;;;;6.20;99.90;;;;;;4948636;29;19929;-69
2021/03/13 01:58:28;;;;;;;;;;;6.20;99.90;;;;;;4947998;29;20047;-69
2021/03/13 02:00:58;;;;;;;;;;;6.20;99.90;;;;;;4948226;29;19919;-69
2021/03/13 02:03:24;;;;;;;;;;;6.20;99.90;;;;;;4948313;29;20839;-69
2021/03/13 02:05:52;;;;;;;;;;;6.20;99.90;;;;;;4947275;29;19918;-69
2021/03/13 02:08:27;;;;;;;;;;;6.20;99.90;;;;;;4934010;29;19937;-69
2021/03/13 02:10:57;;;;;;;;;;;6.20;99.90;;;;;;4946547;28;20013;-69
2021/03/13 02:13:41;;;;;;;;;;;6.20;99.90;;;;;;4947492;29;20352;-69
2021/03/13 02:16:20;;;;;;;;;;;6.20;99.90;;;;;;4948125;29;19933;-69
2021/03/13 02:18:48;;;;;;;;;;;6.20;99.90;;;;;;4946037;29;19925;-69
2021/03/13 02:21:15;;;;;;;;;;;6.20;99.90;;;;;;4947737;29;20369;-69
2021/03/13 02:23:59;;;;;;;;;;;6.10;99.90;;;;;;4933278;29;19977;-69
2021/03/13 02:26:43;;;;;;;;;;;6.20;99.90;;;;;;4948098;29;19925;-69
2021/03/13 02:29:15;;;;;;;;;;;6.10;99.90;;;;;;4947867;29;19910;-69
2021/03/13 02:31:43;;;;;;;;;;;6.20;99.90;;;;;;4946716;29;19926;-69
2021/03/13 02:34:08;;;;;;;;;;;6.20;99.90;;;;;;4933254;29;19921;-69
2021/03/13 02:36:34;;;;;;;;;;;6.20;99.90;;;;;;4936779;29;19918;-69
2021/03/13 02:39:06;;;;;;;;;;;6.20;99.90;;;;;;4946535;29;19925;-69
2021/03/13 02:41:44;;;;;;;;;;;6.20;99.90;;;;;;4933104;29;19929;-69
2021/03/13 02:44:15;;;;;;;;;;;6.20;99.90;;;;;;4949431;28;19921;-68
2021/03/13 02:46:42;;;;;;;;;;;6.20;99.90;;;;;;4965231;28;19928;-69
2021/03/13 02:49:10;;;;;;;;;;;6.20;99.90;;;;;;4966651;28;19910;-69
2021/03/13 02:51:35;;;;;;;;;;;6.20;99.90;;;;;;4948353;28;20438;-69
2021/03/13 02:54:01;;;;;;;;;;;6.20;99.90;;;;;;4965241;28;20037;-69
2021/03/13 02:56:26;;;;;;;;;;;6.20;99.90;;;;;;4965772;28;20008;-68
2021/03/13 02:58:53;;;;;;;;;;;6.20;99.90;;;;;;4965475;28;19922;-69
2021/03/13 03:01:19;;;;;;;;;;;6.20;99.90;;;;;;4963490;28;19949;-69
2021/03/13 03:03:47;;;;;;;;;;;6.30;99.90;;;;;;4947874;28;20035;-69
2021/03/13 03:06:15;;;;;;;;;;;6.30;99.90;;;;;;4981091;28;20436;-68
2021/03/13 03:08:41;;;;;;;;;;;6.30;99.90;;;;;;4949552;28;20315;-69
2021/03/13 03:11:06;;;;;;;;;;;6.30;99.90;;;;;;4965566;28;19973;-69
2021/03/13 03:13:32;;;;;;;;;;;6.30;99.90;;;;;;4965159;28;19921;-69
2021/03/13 03:16:01;;;;;;;;;;;6.30;99.90;;;;;;4951150;28;20379;-69
2021/03/13 03:18:27;;;;;;;;;;;6.20;99.90;;;;;;4965021;28;19921;-69
2021/03/13 03:20:52;;;;;;;;;;;6.30;99.90;;;;;;4964044;28;19918;-69
2021/03/13 03:23:20;;;;;;;;;;;6.30;99.90;;;;;;4968778;28;20444;-68
2021/03/13 03:25:46;;;;;;;;;;;6.30;99.90;;;;;;4970831;28;19914;-69
2021/03/13 03:28:16;;;;;;;;;;;6.30;99.90;;;;;;4970353;28;19996;-68
2021/03/13 03:30:41;;;;;;;;;;;6.30;99.90;;;;;;4971693;28;19926;-69
2021/03/13 03:33:07;;;;;;;;;;;6.30;99.90;;;;;;4969087;28;20331;-69
2021/03/13 03:35:32;;;;;;;;;;;6.30;99.90;;;;;;4970627;28;19914;-68
2021/03/13 03:37:59;;;;;;;;;;;6.30;99.90;;;;;;4950982;28;20312;-69
2021/03/13 03:40:25;;;;;;;;;;;6.30;99.90;;;;;;4968583;28;19917;-68
2021/03/13 03:42:53;;;;;;;;;;;6.30;99.90;;;;;;4970030;28;19914;-68
2021/03/13 03:45:24;;;;;;;;;;;6.30;99.90;;;;;;4969757;28;20014;-68
2021/03/13 03:47:50;;;;;;;;;;;6.30;99.90;;;;;;4970270;28;19918;-68
2021/03/13 03:50:15;;;;;;;;;;;6.40;99.90;;;;;;4967960;28;19925;-68
2021/03/13 03:52:41;;;;;;;;;;;6.30;99.90;;;;;;4959150;28;19918;-68
2021/03/13 03:55:07;;;;;;;;;;;6.30;99.90;;;;;;4969722;28;19918;-68
2021/03/13 03:57:35;;;;;;;;;;;6.30;99.90;;;;;;4969645;28;19921;-68
2021/03/13 04:00:00;;;;;;;;;;;6.30;99.90;;;;;;4967280;28;19980;-68
2021/03/13 04:02:28;;;;;;;;;;;6.20;99.90;;;;;;4969605;28;19914;-68
2021/03/13 04:04:54;;;;;;;;;;;6.20;99.90;;;;;;4967008;28;19910;-68
2021/03/13 04:07:19;;;;;;;;;;;6.30;99.90;;;;;;4970048;28;20224;-69
2021/03/13 04:09:45;;;;;;;;;;;6.30;99.90;;;;;;4960330;28;19914;-68
2021/03/13 04:12:14;;;;;;;;;;;6.30;99.90;;;;;;4951322;28;19965;-69
2021/03/13 04:14:40;;;;;;;;;;;6.30;99.90;;;;;;4968049;28;19921;-69
2021/03/13 04:17:07;;;;;;;;;;;6.30;99.90;;;;;;4965977;28;19910;-68
2021/03/13 04:19:33;;;;;;;;;;;6.30;99.90;;;;;;4968302;28;19929;-69
2021/03/13 04:21:59;;;;;;;;;;;6.30;99.90;;;;;;4968195;28;19910;-69
2021/03/13 04:24:24;;;;;;;;;;;6.40;99.90;;;;;;4966139;28;20076;-69
2021/03/13 04:26:50;;;;;;;;;;;6.40;99.90;;;;;;4965359;28;19914;-68
2021/03/13 04:29:15;;;;;;;;;;;6.40;99.90;;;;;;4966175;28;20272;-69
2021/03/13 04:31:41;;;;;;;;;;;6.40;99.90;;;;;;4968017;28;19913;-68
2021/03/13 04:34:06;;;;;;;;;;;6.40;99.90;;;;;;4950444;28;20577;-69
2021/03/13 04:36:32;;;;;;;;;;;6.40;99.90;;;;;;4951554;28;19910;-69
2021/03/13 04:39:00;;;;;;;;;;;6.40;99.90;;;;;;4970692;28;19933;-68
2021/03/13 04:41:26;;;;;;;;;;;6.40;99.90;;;;;;4966919;28;19918;-69
2021/03/13 04:43:51;;;;;;;;;;;6.40;99.90;;;;;;4967047;28;19997;-67
2021/03/13 04:46:22;;;;;;;;;;;6.40;99.90;;;;;;4967848;28;19921;-69
2021/03/13 04:48:50;;;;;;;;;;;6.40;99.90;;;;;;4969734;28;19910;-69
2021/03/13 04:51:18;;;;;;;;;;;6.40;99.90;;;;;;4968937;28;19992;-69
2021/03/13 04:53:44;;;;;;;;;;;6.50;99.90;;;;;;4965311;28;20275;-69
2021/03/13 04:56:10;;;;;;;;;;;6.50;99.90;;;;;;4967641;28;19918;-69
2021/03/13 04:58:35;;;;;;;;;;;6.50;99.90;;;;;;4953309;28;19945;-69
2021/03/13 05:01:01;;;;;;;;;;;6.50;99.90;;;;;;4969722;28;19914;-69
2021/03/13 05:03:28;;;;;;;;;;;6.40;99.90;;;;;;4969012;28;19910;-69
2021/03/13 05:05:54;;;;;;;;;;;6.50;99.90;;;;;;4967912;28;19918;-69
2021/03/13 05:08:19;;;;;;;;;;;6.40;99.90;;;;;;4983627;28;20352;-69
2021/03/13 05:10:45;;;;;;;;;;;6.50;99.90;;;;;;4967600;28;20340;-69
2021/03/13 05:13:11;;;;;;;;;;;6.40;99.90;;;;;;4968538;28;20472;-69
2021/03/13 05:15:36;;;;;;;;;;;6.40;99.90;;;;;;4967450;28;20274;-69
2021/03/13 05:18:02;;;;;;;;;;;6.40;99.90;;;;;;4968792;28;20437;-69
2021/03/13 05:20:30;;;;;;;;;;;6.40;99.90;;;;;;4964851;28;19914;-69
2021/03/13 05:22:58;;;;;;;;;;;6.40;99.90;;;;;;4968515;28;19910;-69
2021/03/13 05:25:24;;;;;;;;;;;6.40;99.90;;;;;;4968134;28;21177;-69
2021/03/13 05:27:49;;;;;;;;;;;6.50;99.90;;;;;;4967518;28;19910;-69
2021/03/13 05:30:17;;;;;;;;;;;6.50;99.90;;;;;;4968805;28;20339;-69
2021/03/13 05:32:43;;;;;;;;;;;6.50;99.90;;;;;;4967526;28;20355;-69
2021/03/13 05:35:11;;;;;;;;;;;6.50;99.90;;;;;;4967941;28;19948;-69
2021/03/13 05:37:39;;;;;;;;;;;6.50;99.90;;;;;;4966337;28;19910;-68
2021/03/13 05:40:05;;;;;;;;;;;6.50;99.90;;;;;;4966813;28;19914;-68
2021/03/13 05:42:31;;;;;;;;;;;6.50;99.90;;;;;;4983068;28;20133;-68
2021/03/13 05:44:59;;;;;;;;;;;6.50;99.90;;;;;;4965902;28;19926;-69
2021/03/13 05:47:24;;;;;;;;;;;6.50;99.90;;;;;;4965260;28;19918;-69
2021/03/13 05:49:58;;;;;;;;;;;6.60;99.90;;;;;;4965696;28;20260;-69
2021/03/13 05:52:26;;;;;;;;;;;6.60;99.90;;;;;;4967972;28;19918;-69
2021/03/13 05:54:54;;;;;;;;;;;6.60;99.90;;;;;;4966716;28;19914;-69
2021/03/13 05:57:20;;;;;;;;;;;6.60;99.90;;;;;;4967849;28;19921;-69
2021/03/13 05:59:45;;;;;;;;;;;6.60;99.90;;;;;;4966612;28;19914;-69
2021/03/13 06:02:14;;;;;;;;;;;6.60;99.90;;;;;;4966675;28;19918;-69
2021/03/13 06:04:40;;;;;;;;;;;6.60;99.90;;;;;;4965708;28;19921;-69
2021/03/13 06:07:05;;;;;;;;;;;6.60;99.90;;;;;;4963331;28;19910;-69
2021/03/13 06:09:31;;;;;;;;;;;6.70;99.90;;;;;;4966118;28;19913;-69
2021/03/13 06:11:56;;;;;;;;;;;6.70;99.90;;;;;;4967538;28;20451;-69
2021/03/13 06:14:22;;;;;;;;;;;6.60;99.90;;;;;;4964104;28;20332;-69
2021/03/13 06:16:47;;;;;;;;;;;6.70;99.90;;;;;;4965819;28;19925;-70
2021/03/13 06:19:13;;;;;;;;;;;6.70;99.90;;;;;;4966768;28;19918;-70
2021/03/13 06:21:39;;;;;;;;;;;6.70;99.90;;;;;;4968378;28;20644;-69
2021/03/13 06:24:18;;;;;;;;;;;6.80;99.90;;;;;;4952538;28;20363;-69
2021/03/13 06:26:59;;;;;;;;;;;6.80;99.90;;;;;;4966621;28;20016;-69
2021/03/13 06:29:24;;;;;;;;;;;6.70;99.90;;;;;;4951070;28;20410;-69
2021/03/13 06:32:07;;;;;;;;;;;6.70;99.90;;;;;;4950918;28;19910;-69
2021/03/13 06:34:37;;;;;;;;;;;6.70;99.90;;;;;;4950241;28;19910;-69
2021/03/13 06:37:22;;;;;;;;;;;6.70;99.90;;;;;;4965944;28;19997;-69
2021/03/13 06:39:47;;;;;;;;;;;6.80;99.90;;;;;;4944757;28;19933;-69
2021/03/13 06:42:23;;;;;;;;;;;6.70;99.90;;;;;;4965724;28;20617;-69
2021/03/13 06:44:57;;;;;;;;;;;6.70;99.90;;;;;;4967147;28;19945;-71
2021/03/13 06:47:31;;;;;;;;;;;6.70;99.90;;;;;;4965907;28;19921;-68
2021/03/13 06:50:10;;;;;;;;;;;6.70;99.90;;;;;;4952348;28;19914;-68
2021/03/13 06:52:36;;;;;;;;;;;6.70;99.90;;;;;;4968314;28;20356;-68
2021/03/13 06:55:04;;;;;;;;;;;6.70;99.90;;;;;;4965554;28;19925;-68
2021/03/13 06:57:29;;;;;;;;;;;6.70;99.90;;;;;;4968492;28;19910;-68
2021/03/13 07:00:00;;;;;;;;;;;6.70;99.90;;;;;;4965690;28;20352;-68
2021/03/13 07:02:26;;;;;;;;;;;6.70;99.90;;;;;;4947108;28;20357;-68
2021/03/13 07:04:54;;;;;;;;;;;6.80;99.90;;;;;;4965608;28;19918;-68
2021/03/13 07:07:26;;;;;;;;;;;6.70;99.90;;;;;;4966809;28;19971;-68
2021/03/13 07:09:55;;;;;;;;;;;6.80;99.90;;;;;;4964734;28;19929;-68
2021/03/13 07:12:26;;;;;;;;;;;6.70;99.90;;;;;;4964885;28;19918;-68
2021/03/13 07:14:54;;;;;;;;;;;6.70;99.90;;;;;;4961864;28;20511;-68
2021/03/13 07:17:20;;;;;;;;;;;6.80;99.90;;;;;;4964996;28;19917;-68
2021/03/13 07:19:45;;;;;;;;;;;6.80;99.90;;;;;;4963965;28;19933;-68
2021/03/13 07:22:11;;;;;;;;;;;6.80;99.90;;;;;;4948623;28;20053;-68
2021/03/13 07:24:37;;;;;;;;;;;6.80;99.90;;;;;;4964903;28;20244;-69
2021/03/13 07:27:04;;;;;;;;;;;6.80;99.90;;;;;;4966131;28;19996;-68
2021/03/13 07:29:29;;;;;;;;;;;6.80;99.90;;;;;;4967441;28;19968;-68
2021/03/13 07:32:16;;;;;;;;;;;6.80;99.90;;;;;;4964173;28;20438;-68
2021/03/13 07:34:42;;;;;;;;;;;6.80;99.90;;;;;;4964465;28;19921;-68
2021/03/13 07:37:08;;;;;;;;;;;6.80;99.90;;;;;;4965333;28;20499;-68
2021/03/13 07:39:34;;;;;;;;;;;6.80;99.90;;;;;;4964777;28;19961;-68
2021/03/13 07:42:02;;;;;;;;;;;6.90;99.90;;;;;;4965279;28;19914;-68
2021/03/13 07:44:28;;;;;;;;;;;6.90;99.90;;;;;;4965999;28;19914;-68
2021/03/13 07:46:53;;;;;;;;;;;7.00;99.90;;;;;;4961056;28;20308;-70
2021/03/13 07:49:19;;;;;;;;;;;7.00;99.90;;;;;;4966358;28;19968;-70
2021/03/13 07:51:47;;;;;;;;;;;7.00;99.90;;;;;;4962803;28;19922;-70
2021/03/13 07:54:14;;;;;;;;;;;7.00;99.90;;;;;;4964522;28;19953;-70
2021/03/13 07:56:42;;;;;;;;;;;7.00;99.90;;;;;;4964190;28;19977;-70
2021/03/13 07:59:11;;;;;;;;;;;7.00;99.90;;;;;;4966450;28;19921;-70
2021/03/13 08:01:46;;;;;;;;;;;7.10;99.90;;;;;;4966548;28;19921;-70
2021/03/13 08:04:32;;;;;;;;;;;7.10;99.90;;;;;;4966584;28;19914;-70
2021/03/13 08:07:00;;;;;;;;;;;7.00;99.90;;;;;;4945897;28;20383;-70
2021/03/13 08:09:25;;;;;;;;;;;7.10;99.90;;;;;;4966103;28;19910;-70
2021/03/13 08:11:53;;;;;;;;;;;7.00;99.90;;;;;;4969559;28;19925;-70
2021/03/13 08:14:39;;;;;;;;;;;7.00;99.90;;;;;;4969526;28;19910;-70
2021/03/13 08:17:08;;;;;;;;;;;7.10;99.90;;;;;;4970276;28;19917;-70
2021/03/13 08:19:37;;;;;;;;;;;7.10;99.90;;;;;;4970821;28;19976;-70
2021/03/13 08:22:15;;;;;;;;;;;7.10;99.90;;;;;;4969283;28;19968;-70
2021/03/13 08:24:44;;;;;;;;;;;7.20;99.90;;;;;;4968594;28;20040;-70
2021/03/13 08:27:10;;;;;;;;;;;7.30;99.90;;;;;;4951036;28;19910;-70
2021/03/13 08:29:45;;;;;;;;;;;7.30;99.90;;;;;;4984467;28;19914;-70
2021/03/13 08:32:11;;;;;;;;;;;7.20;99.90;;;;;;4951321;28;20037;-70
2021/03/13 08:34:36;;;;;;;;;;;7.30;99.90;;;;;;4968131;28;20009;-70
2021/03/13 08:37:23;;;;;;;;;;;7.30;99.90;;;;;;4970056;28;19914;-70
2021/03/13 08:39:51;;;;;;;;;;;7.30;99.90;;;;;;4968928;28;19965;-70
2021/03/13 08:42:34;;;;;;;;;;;7.20;99.90;;;;;;4966982;28;19921;-70
2021/03/13 08:45:14;;;;;;;;;;;7.20;99.90;;;;;;4968430;28;19922;-70
2021/03/13 08:47:41;;;;;;;;;;;7.10;99.90;;;;;;4968459;28;19919;-70
2021/03/13 08:50:08;;;;;;;;;;;7.20;99.90;;;;;;4946883;28;19918;-71
2021/03/13 08:52:33;;;;;;;;;;;7.20;99.90;;;;;;4968839;28;19910;-70
2021/03/13 08:54:59;;;;;;;;;;;7.20;99.90;;;;;;4981295;28;19984;-70
2021/03/13 08:57:25;;;;;;;;;;;7.20;99.90;;;;;;4968034;28;20005;-70
2021/03/13 08:59:53;;;;;;;;;;;7.20;99.90;;;;;;4968277;28;19913;-70
2021/03/13 09:02:22;;;;;;;;;;;7.30;99.90;;;;;;4967682;28;20007;-70
2021/03/13 09:04:51;;;;;;;;;;;7.30;99.90;;;;;;4968344;28;20356;-70
2021/03/13 09:07:17;;;;;;;;;;;7.30;99.90;;;;;;4967787;28;20303;-70
2021/03/13 09:09:45;;;;;;;;;;;7.30;99.90;;;;;;4965928;28;19910;-70
2021/03/13 09:12:12;;;;;;;;;;;7.30;99.90;;;;;;4967861;28;20336;-70
2021/03/13 09:14:38;;;;;;;;;;;7.30;99.90;;;;;;4967110;28;19913;-70
2021/03/13 09:17:10;;;;;;;;;;;7.30;99.90;;;;;;4951255;28;19917;-70
2021/03/13 09:19:35;;;;;;;;;;;7.30;99.90;;;;;;4955723;28;20337;-70
2021/03/13 09:22:05;;;;;;;;;;;7.30;99.90;;;;;;4969023;28;19928;-69
2021/03/13 09:24:31;;;;;;;;;;;7.30;99.90;;;;;;4968139;28;20211;-70
2021/03/13 09:26:58;;;;;;;;;;;7.30;99.90;;;;;;4969338;28;19973;-70
2021/03/13 09:29:27;;;;;;;;;;;7.40;99.90;;;;;;4964785;28;20390;-70
2021/03/13 09:31:55;;;;;;;;;;;7.30;99.90;;;;;;4969771;28;19910;-70
2021/03/13 09:34:23;;;;;;;;;;;7.30;99.90;;;;;;4966030;28;20626;-70
2021/03/13 09:36:51;;;;;;;;;;;7.30;99.90;;;;;;4965670;28;20375;-70
2021/03/13 09:39:21;;;;;;;;;;;7.40;99.90;;;;;;4966248;28;20062;-70
2021/03/13 09:42:02;;;;;;;;;;;7.40;99.90;;;;;;4968706;28;20368;-69
2021/03/13 09:44:33;;;;;;;;;;;7.40;99.90;;;;;;4980847;28;19946;-69
2021/03/13 09:46:58;;;;;;;;;;;7.40;99.90;;;;;;4963572;28;19924;-69
2021/03/13 09:49:29;;;;;;;;;;;7.40;99.90;;;;;;4965749;28;19910;-70
2021/03/13 09:51:54;;;;;;;;;;;7.40;99.90;;;;;;4967839;28;19921;-69
2021/03/13 09:54:20;;;;;;;;;;;7.40;99.90;;;;;;4964227;28;19918;-70
2021/03/13 09:56:48;;;;;;;;;;;7.40;99.90;;;;;;4965915;28;19977;-70
2021/03/13 09:59:15;;;;;;;;;;;7.40;99.90;;;;;;4949466;28;19945;-70
2021/03/13 10:01:41;;;;;;;;;;;7.40;99.90;;;;;;4965907;28;19917;-70
2021/03/13 10:04:06;;;;;;;;;;;7.40;99.90;;;;;;4963659;28;20343;-70
2021/03/13 10:06:32;;;;;;;;;;;7.40;99.90;;;;;;4980301;28;21768;-70
2021/03/13 10:08:58;;;;;;;;;;;7.40;99.90;;;;;;4951195;28;19946;-70
2021/03/13 10:11:23;;;;;;;;;;;7.40;99.90;;;;;;4965396;28;19918;-69
2021/03/13 10:13:52;;;;;;;;;;;7.50;99.90;;;;;;4964757;28;19921;-70
2021/03/13 10:16:18;;;;;;;;;;;7.50;99.90;;;;;;4967828;28;20419;-70
2021/03/13 10:18:46;;;;;;;;;;;7.50;99.90;;;;;;4964556;28;19946;-70
2021/03/13 10:21:11;;;;;;;;;;;7.50;99.90;;;;;;4965790;28;19937;-71
2021/03/13 10:23:39;;;;;;;;;;;7.50;99.90;;;;;;4966764;28;19921;-72
2021/03/13 10:26:09;;;;;;;;;;;7.50;99.90;;;;;;4960517;28;20017;-70
2021/03/13 10:28:53;;;;;;;;;;;7.50;99.90;;;;;;4946151;28;19964;-70
2021/03/13 10:31:36;;;;;;;;;;;7.50;99.90;;;;;;4965623;28;19914;-70
2021/03/13 10:34:02;;;;;;;;;;;7.50;99.90;;;;;;4964932;28;19914;-69
2021/03/13 10:36:43;;;;;;;;;;;7.50;99.90;;;;;;4965454;28;19989;-70
2021/03/13 10:39:09;;;;;;;;;;;7.50;99.90;;;;;;4964841;28;19972;-70
2021/03/13 10:41:38;;;;;;;;;;;7.50;99.90;;;;;;4966890;28;19941;-70
2021/03/13 10:44:03;;;;;;;;;;;7.40;99.90;;;;;;4963874;28;19968;-71
2021/03/13 10:46:40;;;;;;;;;;;7.40;99.90;;;;;;4932658;29;19919;-70
2021/03/13 10:49:08;;;;;;;;;;;7.40;99.90;;;;;;4947088;28;19948;-72
2021/03/13 10:51:43;;;;;;;;;;;7.40;99.90;;;;;;4946885;29;20313;-72
2021/03/13 10:54:24;;;;;;;;;;;7.20;99.90;;;;;;4945831;28;19911;-71
2021/03/13 10:56:52;;;;;;;;;;;7.30;99.90;;;;;;4947961;29;19921;-71
2021/03/13 10:59:29;;;;;;;;;;;7.20;99.90;;;;;;4932901;29;19919;-70
2021/03/13 11:01:54;;;;;;;;;;;7.10;99.90;;;;;;4945161;29;20287;-70
2021/03/13 11:04:22;;;;;;;;;;;6.90;99.90;;;;;;4946663;29;19961;-71
2021/03/13 11:06:53;;;;;;;;;;;6.90;99.90;;;;;;4947139;29;19921;-71
2021/03/13 11:09:20;;;;;;;;;;;6.80;99.90;;;;;;4932761;29;19914;-71
2021/03/13 11:11:48;;;;;;;;;;;6.80;99.90;;;;;;4931726;29;19914;-71
2021/03/13 11:14:13;;;;;;;;;;;6.80;99.90;;;;;;4945969;29;19922;-71
2021/03/13 11:16:39;;;;;;;;;;;6.70;99.90;;;;;;4947745;29;19911;-71
2021/03/13 11:19:05;;;;;;;;;;;6.50;99.90;;;;;;4931046;29;19914;-72
2021/03/13 11:21:30;;;;;;;;;;;6.50;99.90;;;;;;4946896;29;20029;-72
2021/03/13 11:23:56;;;;;;;;;;;6.40;99.90;;;;;;4948082;29;19910;-73
2021/03/13 11:26:22;;;;;;;;;;;6.40;99.90;;;;;;4947109;29;19925;-72
2021/03/13 11:28:48;;;;;;;;;;;6.40;99.90;;;;;;4945830;29;19917;-72
2021/03/13 11:31:13;;;;;;;;;;;6.30;99.90;;;;;;4937529;29;19918;-71
2021/03/13 11:33:41;;;;;;;;;;;6.30;99.90;;;;;;4947828;29;19915;-71
2021/03/13 11:36:07;;;;;;;;;;;6.30;99.90;;;;;;4947407;29;19911;-71
2021/03/13 11:38:33;;;;;;;;;;;6.30;99.90;;;;;;4944542;29;19911;-71
2021/03/13 11:40:59;;;;;;;;;;;6.30;99.90;;;;;;4932665;29;19953;-71
2021/03/13 11:43:27;;;;;;;;;;;6.30;99.90;;;;;;4933506;29;19925;-71
2021/03/13 11:45:52;;;;;;;;;;;6.40;99.90;;;;;;4949904;28;20470;-71
2021/03/13 11:48:18;;;;;;;;;;;6.50;99.90;;;;;;4951169;28;19936;-71
2021/03/13 11:50:44;;;;;;;;;;;6.50;99.90;;;;;;4950920;28;19940;-71
2021/03/13 11:53:11;;;;;;;;;;;6.50;99.90;;;;;;4952374;29;20387;-71
2021/03/13 11:55:37;;;;;;;;;;;6.50;99.90;;;;;;4950322;28;20484;-71
2021/03/13 11:58:05;;;;;;;;;;;6.50;99.90;;;;;;4951647;29;19921;-71
2021/03/13 12:00:31;;;;;;;;;;;6.50;99.90;;;;;;4946925;29;20014;-71
2021/03/13 12:03:01;;;;;;;;;;;6.40;99.90;;;;;;4931164;29;20313;-71
2021/03/13 12:05:29;;;;;;;;;;;6.50;99.90;;;;;;4949196;29;19918;-71
2021/03/13 12:07:54;;;;;;;;;;;6.40;99.90;;;;;;4948876;29;19911;-71
2021/03/13 12:10:20;;;;;;;;;;;6.40;99.90;;;;;;4948873;29;19918;-71
2021/03/13 12:12:48;;;;;;;;;;;6.40;99.90;;;;;;4934657;29;19930;-70
2021/03/13 12:15:16;;;;;;;;;;;6.40;99.90;;;;;;4947179;29;19921;-70
2021/03/13 12:17:41;;;;;;;;;;;6.40;99.90;;;;;;4948727;29;19923;-70
2021/03/13 12:20:10;;;;;;;;;;;6.40;99.90;;;;;;4949552;29;19925;-70
2021/03/13 12:22:40;;;;;;;;;;;6.40;99.90;;;;;;4935092;29;19918;-70
2021/03/13 12:25:09;;;;;;;;;;;6.40;99.90;;;;;;4948599;29;19933;-70
2021/03/13 12:27:40;;;;;;;;;;;6.40;99.90;;;;;;4933435;29;19993;-70
2021/03/13 12:30:09;;;;;;;;;;;6.50;99.90;;;;;;4948960;29;19929;-70
2021/03/13 12:32:34;;;;;;;;;;;6.50;99.90;;;;;;4950133;29;19973;-70
2021/03/13 12:35:03;;;;;;;;;;;6.50;99.90;;;;;;4934524;29;20622;-70
2021/03/13 12:37:28;;;;;;;;;;;6.60;99.90;;;;;;4944885;29;19972;-70
2021/03/13 12:39:54;;;;;;;;;;;6.70;99.90;;;;;;4949322;29;20351;-70
2021/03/13 12:42:20;;;;;;;;;;;6.70;99.90;;;;;;4949214;29;20428;-70
2021/03/13 12:44:45;;;;;;;;;;;6.70;99.90;;;;;;4934830;28;20005;-70
2021/03/13 12:47:13;;;;;;;;;;;6.80;99.90;;;;;;4968036;28;19949;-70
2021/03/13 12:49:39;;;;;;;;;;;6.70;99.90;;;;;;4966291;28;20548;-70
2021/03/13 12:52:05;;;;;;;;;;;6.70;99.90;;;;;;4967438;28;19921;-71
2021/03/13 12:54:32;;;;;;;;;;;6.70;99.90;;;;;;4950306;28;20414;-71
2021/03/13 12:56:58;;;;;;;;;;;6.70;99.90;;;;;;4951505;28;19910;-71
2021/03/13 12:59:26;;;;;;;;;;;6.60;99.90;;;;;;4968322;28;20013;-71
2021/03/13 13:01:53;;;;;;;;;;;6.60;99.90;;;;;;4967716;28;20013;-70
2021/03/13 13:04:19;;;;;;;;;;;6.60;99.90;;;;;;4946262;28;19910;-70
2021/03/13 13:06:44;;;;;;;;;;;6.60;99.90;;;;;;4960078;28;19914;-71
2021/03/13 13:09:10;;;;;;;;;;;6.70;99.90;;;;;;4968553;28;19968;-71
2021/03/13 13:11:35;;;;;;;;;;;6.80;99.90;;;;;;4967217;28;19910;-71
2021/03/13 13:14:06;;;;;;;;;;;6.70;99.90;;;;;;4967214;28;20352;-71
2021/03/13 13:16:34;;;;;;;;;;;6.80;99.90;;;;;;4956632;28;19918;-70
2021/03/13 13:19:00;;;;;;;;;;;6.90;99.90;;;;;;4981235;28;19918;-70
2021/03/13 13:21:28;;;;;;;;;;;6.90;99.90;;;;;;4968567;28;20061;-70
2021/03/13 13:23:54;;;;;;;;;;;6.90;99.90;;;;;;4968224;28;19914;-70
2021/03/13 13:26:22;;;;;;;;;;;6.80;99.90;;;;;;4980932;28;19961;-70
2021/03/13 13:28:48;;;;;;;;;;;7.00;99.90;;;;;;4968304;28;19910;-70
2021/03/13 13:31:13;;;;;;;;;;;7.00;99.90;;;;;;4967771;28;19925;-71
2021/03/13 13:33:39;;;;;;;;;;;7.10;99.90;;;;;;4956455;28;19926;-71
2021/03/13 13:36:07;;;;;;;;;;;7.00;99.90;;;;;;4968535;28;19972;-71
2021/03/13 13:38:32;;;;;;;;;;;7.10;99.90;;;;;;4951752;28;20009;-70
2021/03/13 13:40:58;;;;;;;;;;;7.10;99.90;;;;;;4968225;28;19965;-70
2021/03/13 13:43:25;;;;;;;;;;;7.10;99.90;;;;;;4967637;28;19932;-70
2021/03/13 13:45:50;;;;;;;;;;;7.20;99.90;;;;;;4968142;28;19929;-70
2021/03/13 13:48:20;;;;;;;;;;;7.30;99.90;;;;;;4968467;28;19914;-70
2021/03/13 13:50:48;;;;;;;;;;;7.20;99.90;;;;;;4963161;28;19929;-70
2021/03/13 13:53:14;;;;;;;;;;;7.20;99.90;;;;;;4967546;28;20013;-70
2021/03/13 13:55:41;;;;;;;;;;;7.20;99.90;;;;;;4948516;28;20016;-70
2021/03/13 13:58:07;;;;;;;;;;;7.20;99.90;;;;;;4964519;28;19914;-71
2021/03/13 14:00:34;;;;;;;;;;;7.20;99.90;;;;;;4967620;28;19928;-70
2021/03/13 14:03:00;;;;;;;;;;;7.20;99.90;;;;;;4967032;28;19921;-71
2021/03/13 14:05:30;;;;;;;;;;;7.30;99.90;;;;;;4965309;28;19910;-70
2021/03/13 14:07:58;;;;;;;;;;;7.30;99.90;;;;;;4966945;28;20068;-70
2021/03/13 14:10:27;;;;;;;;;;;7.40;99.90;;;;;;4966850;28;19926;-71
2021/03/13 14:12:53;;;;;;;;;;;7.50;99.90;;;;;;4951802;28;20390;-70
2021/03/13 14:15:19;;;;;;;;;;;7.50;99.90;;;;;;4964623;28;19965;-70
2021/03/13 14:17:44;;;;;;;;;;;7.60;99.90;;;;;;4967075;28;19921;-70
2021/03/13 14:20:12;;;;;;;;;;;7.60;99.90;;;;;;4949710;28;20332;-70
2021/03/13 14:22:40;;;;;;;;;;;7.70;99.90;;;;;;4949341;28;19924;-70
2021/03/13 14:25:06;;;;;;;;;;;7.70;99.90;;;;;;4964901;28;19918;-70
2021/03/13 14:27:31;;;;;;;;;;;7.70;99.90;;;;;;4965465;28;20144;-70
2021/03/13 14:29:57;;;;;;;;;;;7.80;99.90;;;;;;4966611;28;19940;-71
2021/03/13 14:32:25;;;;;;;;;;;7.80;99.90;;;;;;4949385;28;19918;-70
2021/03/13 14:34:51;;;;;;;;;;;7.80;99.90;;;;;;4981804;28;19921;-71